Time;durP1;ratioP1;P1;durP2;ratioP2;P2;SDS_P1;SDS_P2;PMS_P1;PMS_P2;Temp;Humidity;BMP_temperature;BMP_pressure;BME280_temperature;BME280_humidity;BME280_pressure;Samples;Min_cycle;Max_cycle;Signal;HPM_P1;HPM_P2
2022/12/14 05:03:50;;;;;;;13.32;6.63;;;-0.80;99.90;;;;;;6096448;23;20225;-61
2022/12/14 05:06:23;;;;;;;14.07;9.45;;;-0.80;99.90;;;;;;4975855;28;20224;-60
2022/12/14 05:08:49;;;;;;;10.63;6.65;;;-0.70;99.90;;;;;;4976923;28;20180;-61
2022/12/14 05:11:29;;;;;;;11.80;7.77;;;-0.70;99.90;;;;;;4976820;28;20176;-61
2022/12/14 05:13:54;;;;;;;12.20;8.45;;;-0.70;99.90;;;;;;4971366;28;20302;-60
2022/12/14 05:16:22;;;;;;;15.13;7.63;;;-0.70;99.90;;;;;;4957345;29;20253;-61
2022/12/14 05:18:48;;;;;;;9.38;8.40;;;-0.70;99.90;;;;;;4957084;29;20165;-61
2022/12/14 05:24:00;;;;;;;7.68;5.80;;;-0.70;99.90;;;;;;4957017;28;20207;-61
2022/12/14 05:26:26;;;;;;;12.27;7.40;;;-0.70;99.90;;;;;;4957001;29;20573;-61
2022/12/14 05:28:52;;;;;;;10.70;8.20;;;-0.70;99.90;;;;;;4956936;28;20172;-61
2022/12/14 05:31:17;;;;;;;11.70;7.83;;;-0.70;99.90;;;;;;4956907;29;20184;-63
2022/12/14 05:33:43;;;;;;;12.40;9.27;;;-0.80;99.90;;;;;;4955560;28;20189;-61
2022/12/14 05:36:09;;;;;;;13.50;8.40;;;-0.70;99.90;;;;;;4956002;29;20240;-61
2022/12/14 05:38:35;;;;;;;10.85;9.07;;;-0.70;99.90;;;;;;4956007;29;20184;-62
2022/12/14 05:41:01;;;;;;;11.50;7.93;;;-0.70;99.90;;;;;;4957083;29;20518;-61
2022/12/14 05:43:26;;;;;;;13.60;7.40;;;-0.70;99.90;;;;;;4956430;28;20215;-62
2022/12/14 05:45:59;;;;;;;10.67;8.40;;;-0.70;99.90;;;;;;4956935;29;20595;-60
2022/12/14 05:48:24;;;;;;;7.40;6.32;;;-0.70;99.90;;;;;;4956789;29;20169;-61
2022/12/14 05:50:50;;;;;;;13.03;8.33;;;-0.60;99.90;;;;;;4956717;29;20184;-60
2022/12/14 05:53:16;;;;;;;14.83;8.67;;;-0.60;99.90;;;;;;4956478;29;20177;-60
2022/12/14 05:55:52;;;;;;;7.73;6.50;;;-0.60;99.90;;;;;;4956534;28;20882;-61
2022/12/14 05:58:17;;;;;;;7.65;6.90;;;-0.60;99.90;;;;;;4956467;29;20654;-60
2022/12/14 06:00:43;;;;;;;13.47;7.87;;;-0.50;99.90;;;;;;4955189;29;20180;-62
2022/12/14 06:03:09;;;;;;;8.07;7.23;;;-0.50;99.90;;;;;;4944005;29;20565;-61
2022/12/14 06:05:34;;;;;;;9.20;6.90;;;-0.50;99.90;;;;;;4936878;29;20253;-61
2022/12/14 06:08:00;;;;;;;8.93;7.90;;;-0.50;99.90;;;;;;4937312;29;20408;-61
2022/12/14 06:10:26;;;;;;;9.77;7.17;;;-0.40;99.90;;;;;;4942376;29;20177;-60
2022/12/14 06:12:51;;;;;;;12.63;7.23;;;-0.50;99.90;;;;;;4956289;29;20235;-60
2022/12/14 06:15:17;;;;;;;10.40;7.50;;;-0.50;99.90;;;;;;4938938;29;20564;-61
2022/12/14 06:17:44;;;;;;;8.47;7.20;;;-0.50;99.90;;;;;;4956567;29;20180;-61
2022/12/14 06:20:10;;;;;;;10.30;6.70;;;-0.40;99.90;;;;;;4955813;29;20191;-61
2022/12/14 06:22:36;;;;;;;9.30;7.22;;;-0.40;99.90;;;;;;4938813;29;20176;-61
2022/12/14 06:25:02;;;;;;;10.70;8.00;;;-0.40;99.90;;;;;;4955779;29;20566;-61
2022/12/14 06:27:29;;;;;;;13.98;8.27;;;-0.50;99.90;;;;;;4956177;29;20450;-60
2022/12/14 06:29:54;;;;;;;11.30;6.60;;;-0.40;99.90;;;;;;4938834;29;20260;-61
2022/12/14 06:32:20;;;;;;;13.17;8.10;;;-0.40;99.90;;;;;;4955995;29;20172;-60
2022/12/14 06:34:45;;;;;;;9.00;8.10;;;-0.40;99.90;;;;;;4955089;29;20227;-61
2022/12/14 06:37:12;;;;;;;12.43;7.63;;;-0.40;99.90;;;;;;4955795;29;20411;-61
2022/12/14 06:39:37;;;;;;;10.57;7.15;;;-0.40;99.90;;;;;;4955863;29;20197;-61
2022/12/14 06:42:03;;;;;;;9.60;6.80;;;-0.40;99.90;;;;;;4955196;28;20172;-60
2022/12/14 06:44:29;;;;;;;9.52;7.97;;;-0.40;99.90;;;;;;4955474;29;20265;-61
2022/12/14 06:46:55;;;;;;;14.70;8.63;;;-0.40;99.90;;;;;;4954305;29;20665;-61
2022/12/14 06:49:21;;;;;;;8.83;7.93;;;-0.30;99.90;;;;;;4940411;29;20174;-61
2022/12/14 06:51:47;;;;;;;12.67;7.70;;;-0.40;99.90;;;;;;4946356;29;20420;-61
2022/12/14 06:54:13;;;;;;;19.35;6.95;;;-0.40;99.90;;;;;;4954679;29;20197;-61
2022/12/14 06:56:39;;;;;;;13.70;7.95;;;-0.50;99.90;;;;;;4955213;29;20180;-60
2022/12/14 06:59:07;;;;;;;10.38;7.85;;;-0.50;99.90;;;;;;4954751;29;20545;-60
2022/12/14 07:01:34;;;;;;;11.55;8.27;;;-0.50;99.90;;;;;;4955451;29;20260;-60
2022/12/14 07:04:00;;;;;;;11.43;7.40;;;-0.60;99.90;;;;;;4937888;29;20214;-62
2022/12/14 07:06:27;;;;;;;17.73;10.60;;;-0.60;99.90;;;;;;4955368;29;20212;-60
2022/12/14 07:08:55;;;;;;;12.95;7.93;;;-0.70;99.90;;;;;;4955056;29;20200;-61
2022/12/14 07:11:21;;;;;;;11.30;9.25;;;-0.70;99.90;;;;;;4955471;29;20257;-60
2022/12/14 07:13:47;;;;;;;17.23;9.20;;;-0.70;99.90;;;;;;4954700;29;20560;-61
2022/12/14 07:16:30;;;;;;;9.60;7.53;;;-0.70;99.90;;;;;;4955351;29;20635;-60
2022/12/14 07:18:57;;;;;;;11.68;8.07;;;-0.70;99.90;;;;;;4954217;29;20184;-61
2022/12/14 07:21:23;;;;;;;12.73;8.77;;;-0.60;99.90;;;;;;4955069;29;20325;-60
2022/12/14 07:23:51;;;;;;;16.45;9.93;;;-0.70;99.90;;;;;;4937379;29;20204;-61
2022/12/14 07:26:23;;;;;;;11.30;8.55;;;-0.60;99.90;;;;;;4954664;29;20684;-60
2022/12/14 07:28:49;;;;;;;10.80;7.00;;;-0.60;99.90;;;;;;4955239;29;20646;-60
2022/12/14 07:31:21;;;;;;;12.75;7.90;;;-0.60;99.90;;;;;;4955328;29;20516;-60
2022/12/14 07:33:47;;;;;;;14.25;8.07;;;-0.60;99.90;;;;;;4954727;28;20267;-61
2022/12/14 07:36:15;;;;;;;11.57;8.73;;;-0.60;99.90;;;;;;4955009;29;20190;-60
2022/12/14 07:38:42;;;;;;;12.98;9.10;;;-0.60;99.90;;;;;;4955090;29;20233;-61
2022/12/14 07:41:22;;;;;;;12.65;8.38;;;-0.50;99.90;;;;;;4955264;29;20177;-61
2022/12/14 07:43:48;;;;;;;13.98;8.07;;;-0.50;99.90;;;;;;4954739;29;20672;-60
2022/12/14 07:46:17;;;;;;;16.98;9.48;;;-0.50;99.90;;;;;;4955093;29;20205;-61
2022/12/14 07:48:44;;;;;;;13.23;8.95;;;-0.50;99.90;;;;;;4955092;29;20169;-61
2022/12/14 07:51:11;;;;;;;21.63;10.25;;;-0.40;99.90;;;;;;4937581;29;20241;-60
2022/12/14 07:53:37;;;;;;;17.63;10.75;;;-0.40;99.90;;;;;;4955985;28;20197;-61
2022/12/14 07:56:08;;;;;;;16.23;8.77;;;-0.40;99.90;;;;;;4958904;29;20200;-61
2022/12/14 07:58:35;;;;;;;12.50;8.57;;;-0.30;99.90;;;;;;4958904;29;20535;-61
2022/12/14 08:01:29;;;;;;;15.48;9.32;;;-0.30;99.90;;;;;;4959085;29;20194;-60
2022/12/14 08:03:57;;;;;;;16.33;9.77;;;-0.30;99.90;;;;;;4955357;28;20212;-61
2022/12/14 08:06:25;;;;;;;12.00;8.40;;;-0.20;99.90;;;;;;4958568;29;20212;-60
2022/12/14 08:08:52;;;;;;;12.43;8.70;;;-0.20;99.90;;;;;;4958814;29;20505;-61
2022/12/14 08:11:21;;;;;;;19.40;11.52;;;-0.20;99.90;;;;;;4958696;29;20180;-60
2022/12/14 08:13:47;;;;;;;14.13;9.95;;;-0.20;99.90;;;;;;4958236;28;20203;-61
2022/12/14 08:16:15;;;;;;;12.98;9.25;;;-0.20;99.90;;;;;;4958586;29;20191;-62
2022/12/14 08:18:41;;;;;;;11.57;10.38;;;-0.10;99.90;;;;;;4958083;29;20575;-61
2022/12/14 08:21:09;;;;;;;16.23;8.80;;;-0.10;99.90;;;;;;4958488;29;20225;-60
2022/12/14 08:23:35;;;;;;;14.07;8.98;;;0.00;99.90;;;;;;4957903;29;20173;-61
2022/12/14 08:26:01;;;;;;;14.98;10.18;;;0.10;99.90;;;;;;4958149;29;20199;-62
2022/12/14 08:28:28;;;;;;;16.38;10.48;;;0.10;99.90;;;;;;4958130;29;20634;-61
2022/12/14 08:30:54;;;;;;;13.18;10.00;;;0.10;99.90;;;;;;4958194;29;20292;-61
2022/12/14 08:33:20;;;;;;;19.20;12.37;;;0.20;99.90;;;;;;4957574;29;20232;-61
2022/12/14 08:35:46;;;;;;;17.00;10.02;;;0.20;99.90;;;;;;4958106;29;20520;-61
2022/12/14 08:38:12;;;;;;;12.23;9.13;;;0.30;99.90;;;;;;4958173;29;20255;-60
2022/12/14 08:40:38;;;;;;;16.40;11.30;;;0.30;99.90;;;;;;4957970;29;20253;-62
2022/12/14 08:43:05;;;;;;;13.30;10.40;;;0.30;99.90;;;;;;4957536;29;20177;-60
2022/12/14 08:45:31;;;;;;;14.35;9.60;;;0.30;99.90;;;;;;4957738;29;20303;-61
2022/12/14 08:47:58;;;;;;;14.85;9.07;;;0.40;99.90;;;;;;4958201;29;20169;-61
2022/12/14 08:50:25;;;;;;;14.38;9.52;;;0.50;99.90;;;;;;4957950;29;20630;-61
2022/12/14 08:52:51;;;;;;;14.32;9.90;;;0.70;99.90;;;;;;4957596;29;20179;-61
2022/12/14 08:55:17;;;;;;;17.50;10.27;;;0.70;99.90;;;;;;4957862;28;20200;-60
2022/12/14 08:57:43;;;;;;;15.38;10.60;;;0.70;99.90;;;;;;4957886;29;20475;-61
2022/12/14 09:00:09;;;;;;;16.33;10.77;;;0.70;99.90;;;;;;4957716;29;20185;-61
2022/12/14 09:02:35;;;;;;;15.80;8.80;;;0.70;99.90;;;;;;4956262;29;20185;-60
2022/12/14 09:05:01;;;;;;;16.33;9.00;;;0.70;99.90;;;;;;4956943;28;20315;-61
2022/12/14 09:07:28;;;;;;;11.97;10.67;;;0.70;99.90;;;;;;4957710;29;20200;-61
2022/12/14 09:09:53;;;;;;;12.88;9.10;;;0.60;99.90;;;;;;4957851;29;20179;-62
2022/12/14 09:12:19;;;;;;;18.53;11.23;;;0.50;99.90;;;;;;4957488;29;20176;-61
2022/12/14 09:14:48;;;;;;;14.50;8.80;;;0.50;99.90;;;;;;4956863;28;20205;-61
2022/12/14 09:17:14;;;;;;;14.48;10.50;;;0.50;99.90;;;;;;4957516;29;20411;-61
2022/12/14 09:19:39;;;;;;;17.75;11.00;;;0.50;99.90;;;;;;4957181;29;20242;-60
2022/12/14 09:22:05;;;;;;;17.87;10.90;;;0.50;99.90;;;;;;4957402;29;20173;-60
2022/12/14 09:24:31;;;;;;;21.97;10.80;;;0.50;99.90;;;;;;4956984;28;20550;-60
2022/12/14 09:26:59;;;;;;;14.40;8.77;;;0.50;99.90;;;;;;4957383;29;20536;-61
2022/12/14 09:29:26;;;;;;;17.50;10.40;;;0.40;99.90;;;;;;4940061;29;20528;-62
2022/12/14 09:31:51;;;;;;;14.05;9.95;;;0.40;99.90;;;;;;4957320;29;20588;-61
2022/12/14 09:34:17;;;;;;;14.67;10.97;;;0.50;99.90;;;;;;4939206;29;20275;-62
2022/12/14 09:36:42;;;;;;;13.70;9.47;;;0.40;99.90;;;;;;4957130;29;20222;-64
2022/12/14 09:39:08;;;;;;;19.57;10.20;;;0.40;99.90;;;;;;4956913;29;20543;-62
2022/12/14 09:41:34;;;;;;;15.83;9.50;;;0.50;99.90;;;;;;4956938;29;20180;-61
2022/12/14 09:44:23;;;;;;;13.93;12.53;;;0.40;99.90;;;;;;4956457;28;20442;-62
2022/12/14 09:46:49;;;;;;;16.27;9.43;;;0.40;99.90;;;;;;4956843;29;20550;-61
2022/12/14 09:49:27;;;;;;;15.53;10.33;;;0.40;99.90;;;;;;4956517;29;20264;-60
2022/12/14 09:51:55;;;;;;;11.55;8.15;;;0.30;99.90;;;;;;4939649;29;20556;-61
2022/12/14 09:54:25;;;;;;;12.00;9.75;;;0.40;99.90;;;;;;4956421;28;20260;-61
2022/12/14 09:56:53;;;;;;;16.65;10.65;;;0.40;99.90;;;;;;4956481;29;20181;-61
2022/12/14 09:59:19;;;;;;;15.57;9.93;;;0.40;99.90;;;;;;4956666;29;20173;-61
2022/12/14 10:02:23;;;;;;;15.38;10.20;;;0.40;99.90;;;;;;4956669;29;20507;-60
2022/12/14 10:05:07;;;;;;;17.95;10.57;;;0.30;99.90;;;;;;4955929;28;20567;-61
2022/12/14 10:07:53;;;;;;;19.42;10.15;;;0.30;99.90;;;;;;4956517;29;20266;-61
2022/12/14 10:10:26;;;;;;;19.80;10.77;;;0.30;99.90;;;;;;4956273;29;20523;-60
2022/12/14 10:13:16;;;;;;;12.05;10.07;;;0.30;99.90;;;;;;4955833;29;20254;-60
2022/12/14 10:16:22;;;;;;;13.00;9.73;;;0.30;99.90;;;;;;4955760;28;20709;-61
2022/12/14 10:18:59;;;;;;;17.90;10.32;;;0.40;99.90;;;;;;4956640;29;20586;-61
2022/12/14 10:21:36;;;;;;;26.98;11.38;;;0.40;99.90;;;;;;4956358;29;20279;-60
2022/12/14 10:24:05;;;;;;;17.83;11.35;;;0.40;99.90;;;;;;4955736;28;20204;-61
2022/12/14 10:26:39;;;;;;;13.63;8.77;;;0.40;99.90;;;;;;4955887;29;20266;-61
2022/12/14 10:29:16;;;;;;;16.77;10.77;;;0.50;99.90;;;;;;4956271;29;20173;-62
2022/12/14 10:32:09;;;;;;;23.70;11.95;;;0.50;99.90;;;;;;4956039;29;20184;-61
2022/12/14 10:34:38;;;;;;;24.48;11.40;;;0.60;99.90;;;;;;4955816;28;20548;-61
2022/12/14 10:37:13;;;;;;;17.17;11.30;;;0.60;99.90;;;;;;4955965;29;20639;-61
2022/12/14 10:39:57;;;;;;;16.52;9.15;;;0.60;99.90;;;;;;4955885;29;20176;-62
2022/12/14 10:42:46;;;;;;;15.68;8.60;;;0.60;99.90;;;;;;4956285;29;20194;-65
2022/12/14 10:45:30;;;;;;;18.33;11.15;;;0.70;99.90;;;;;;4955459;29;20270;-61
2022/12/14 10:48:18;;;;;;;16.60;10.68;;;0.70;99.90;;;;;;4956057;29;20530;-61
2022/12/14 10:51:03;;;;;;;15.32;9.80;;;0.60;99.90;;;;;;4955919;29;20556;-61
2022/12/14 10:53:50;;;;;;;18.08;11.25;;;0.60;99.90;;;;;;4955267;28;20175;-61
2022/12/14 10:56:31;;;;;;;17.50;10.23;;;0.60;99.90;;;;;;4956035;29;20191;-61
2022/12/14 10:59:25;;;;;;;15.77;9.90;;;0.70;99.90;;;;;;4955975;29;20185;-62
2022/12/14 11:02:01;;;;;;;15.02;11.68;;;0.70;99.90;;;;;;4955648;29;20204;-61
2022/12/14 11:04:43;;;;;;;22.38;13.82;;;0.70;99.90;;;;;;4955064;28;20212;-61
2022/12/14 11:07:11;;;;;;;15.88;11.70;;;0.70;99.90;;;;;;4955492;29;20230;-62
2022/12/14 11:09:38;;;;;;;16.27;10.80;;;0.70;99.90;;;;;;4936187;29;20216;-61
2022/12/14 11:12:13;;;;;;;19.27;10.05;;;0.80;99.90;;;;;;4936538;29;20229;-61
2022/12/14 11:14:54;;;;;;;20.48;12.60;;;0.80;99.90;;;;;;4953399;29;20204;-63
2022/12/14 11:17:46;;;;;;;28.73;12.65;;;0.80;99.90;;;;;;4955501;29;20177;-61
2022/12/14 11:20:19;;;;;;;14.80;9.18;;;0.90;99.90;;;;;;4952653;29;20192;-62
2022/12/14 11:22:49;;;;;;;19.85;12.02;;;1.00;99.90;;;;;;4955119;29;20194;-62
2022/12/14 11:25:34;;;;;;;24.35;12.93;;;0.90;99.90;;;;;;4955174;29;20215;-62
2022/12/14 11:28:04;;;;;;;16.77;10.05;;;0.90;99.90;;;;;;4958963;28;20176;-63
2022/12/14 11:30:30;;;;;;;18.30;12.57;;;1.00;99.90;;;;;;4962104;28;20204;-61
2022/12/14 11:32:56;;;;;;;15.70;11.00;;;1.00;99.90;;;;;;4961517;28;20173;-62
2022/12/14 11:35:22;;;;;;;21.85;10.95;;;1.00;99.90;;;;;;4961792;28;20192;-62
2022/12/14 11:37:49;;;;;;;23.87;12.60;;;1.00;99.90;;;;;;4961761;28;20635;-62
2022/12/14 11:40:19;;;;;;;19.00;11.27;;;1.00;99.90;;;;;;4961630;28;20743;-62
2022/12/14 11:42:49;;;;;;;18.65;12.38;;;1.00;99.90;;;;;;4961112;28;20541;-63
2022/12/14 11:45:23;;;;;;;18.33;12.50;;;1.00;99.90;;;;;;4961413;28;20252;-63
2022/12/14 11:48:09;;;;;;;17.10;10.98;;;1.00;99.90;;;;;;4961588;29;20259;-64
2022/12/14 11:50:35;;;;;;;15.45;13.32;;;1.10;99.90;;;;;;4961625;29;20263;-64
2022/12/14 11:53:15;;;;;;;19.10;12.77;;;1.00;99.90;;;;;;4961242;29;20279;-63
2022/12/14 11:55:50;;;;;;;21.00;13.15;;;1.10;99.90;;;;;;4961041;28;20674;-63
2022/12/14 11:58:29;;;;;;;16.83;10.73;;;1.10;99.90;;;;;;4961463;29;20191;-63
2022/12/14 12:00:58;;;;;;;20.35;12.00;;;1.10;99.90;;;;;;4961639;28;20563;-64
2022/12/14 12:03:38;;;;;;;21.65;13.07;;;1.20;99.90;;;;;;4960874;28;20184;-64
2022/12/14 12:06:07;;;;;;;16.95;12.30;;;1.20;99.90;;;;;;4961223;29;20216;-64
2022/12/14 12:08:39;;;;;;;21.75;13.40;;;1.20;99.90;;;;;;4961121;29;20207;-64
2022/12/14 12:11:17;;;;;;;18.38;11.27;;;1.30;99.90;;;;;;4944086;29;20236;-64
2022/12/14 12:13:46;;;;;;;16.58;10.63;;;1.30;99.90;;;;;;4960929;28;20188;-65
2022/12/14 12:16:13;;;;;;;20.42;15.02;;;1.30;99.90;;;;;;4961311;28;20651;-65
2022/12/14 12:19:00;;;;;;;14.52;10.80;;;1.40;99.90;;;;;;4961403;29;20184;-65
2022/12/14 12:21:31;;;;;;;20.92;12.35;;;1.50;99.90;;;;;;4961237;28;20220;-64
2022/12/14 12:24:30;;;;;;;21.10;12.73;;;1.50;99.90;;;;;;4940201;29;20232;-64
2022/12/14 12:26:59;;;;;;;17.45;12.70;;;1.50;99.90;;;;;;4942114;29;20187;-64
2022/12/14 12:29:59;;;;;;;22.23;13.65;;;1.50;99.90;;;;;;4942040;29;20177;-64
2022/12/14 12:32:36;;;;;;;18.35;12.35;;;1.40;99.90;;;;;;4931244;29;20224;-64
2022/12/14 12:35:17;;;;;;;21.50;11.60;;;1.40;99.90;;;;;;4941942;29;20666;-64
2022/12/14 12:38:02;;;;;;;16.80;11.63;;;1.50;99.90;;;;;;4941969;29;20216;-63
2022/12/14 12:40:55;;;;;;;17.05;10.48;;;1.40;99.90;;;;;;4954748;29;20265;-63
2022/12/14 12:43:27;;;;;;;22.05;12.50;;;1.40;99.90;;;;;;4957464;29;20207;-63
2022/12/14 12:46:00;;;;;;;17.17;10.02;;;1.40;99.90;;;;;;4957011;29;20204;-62
2022/12/14 12:48:38;;;;;;;16.98;10.10;;;1.40;99.90;;;;;;4956807;29;20236;-62
2022/12/14 12:51:20;;;;;;;16.85;11.30;;;1.40;99.90;;;;;;4957817;29;20216;-62
2022/12/14 12:53:54;;;;;;;23.00;11.00;;;1.30;99.90;;;;;;4956998;29;20243;-62
2022/12/14 12:56:37;;;;;;;17.30;11.68;;;1.30;99.90;;;;;;4956884;29;20263;-63
2022/12/14 12:59:04;;;;;;;20.80;13.18;;;1.30;99.90;;;;;;4957111;29;20534;-62
2022/12/14 13:01:29;;;;;;;16.80;10.07;;;1.30;99.90;;;;;;4957522;29;20192;-59
2022/12/14 13:04:04;;;;;;;17.10;11.60;;;1.20;99.90;;;;;;4956544;29;20248;-62
2022/12/14 13:06:39;;;;;;;19.05;12.80;;;1.20;99.90;;;;;;4957296;29;20212;-62
2022/12/14 13:09:52;;;;;;;19.75;12.73;;;1.20;99.90;;;;;;4957509;29;20271;-62
2022/12/14 13:12:37;;;;;;;28.83;15.27;;;1.20;99.90;;;;;;4898573;29;20585;-64
2022/12/14 13:15:14;;;;;;;21.05;13.55;;;1.20;99.90;;;;;;4952769;29;20208;-60
2022/12/14 13:17:48;;;;;;;17.55;9.82;;;1.20;99.90;;;;;;4956951;29;20531;-61
2022/12/14 13:20:24;;;;;;;20.15;12.50;;;1.30;99.90;;;;;;4957500;29;20555;-65
2022/12/14 13:22:51;;;;;;;22.48;12.57;;;1.20;99.90;;;;;;4956017;29;20720;-61
2022/12/14 13:25:37;;;;;;;24.55;11.95;;;1.20;99.90;;;;;;4956986;29;20279;-61
2022/12/14 13:28:09;;;;;;;21.20;14.02;;;1.10;99.90;;;;;;4956459;29;20185;-63
2022/12/14 13:30:41;;;;;;;19.70;11.98;;;1.10;99.90;;;;;;4955803;29;20181;-61
2022/12/14 13:33:19;;;;;;;18.60;12.63;;;1.00;99.90;;;;;;4937796;29;20177;-62
2022/12/14 13:35:53;;;;;;;26.13;15.02;;;1.00;99.90;;;;;;4955892;29;20187;-62
2022/12/14 13:38:38;;;;;;;20.27;12.73;;;1.00;99.90;;;;;;4956871;29;20191;-61
2022/12/14 13:41:10;;;;;;;17.98;12.52;;;1.00;99.90;;;;;;4937937;29;20307;-61
2022/12/14 13:44:11;;;;;;;18.58;12.57;;;0.90;99.90;;;;;;4936711;29;20173;-61
2022/12/14 13:46:36;;;;;;;23.55;14.05;;;0.90;99.90;;;;;;4944391;29;20208;-63
2022/12/14 13:49:07;;;;;;;31.03;12.83;;;0.90;99.90;;;;;;4956542;29;20173;-62
2022/12/14 13:51:44;;;;;;;14.52;9.00;;;1.00;99.90;;;;;;4955180;28;20177;-61
2022/12/14 13:54:39;;;;;;;18.00;13.27;;;1.00;99.90;;;;;;4956342;28;20196;-63
2022/12/14 13:57:08;;;;;;;17.52;12.25;;;0.90;99.90;;;;;;4934898;29;20240;-62
2022/12/14 13:59:44;;;;;;;21.38;14.25;;;0.90;99.90;;;;;;4956253;29;20653;-61
2022/12/14 14:02:49;;;;;;;29.58;12.60;;;0.90;99.90;;;;;;4956509;29;20236;-61
2022/12/14 14:05:21;;;;;;;18.77;12.20;;;0.90;99.90;;;;;;4908761;29;20220;-62
2022/12/14 14:08:18;;;;;;;21.10;12.43;;;0.90;99.90;;;;;;4956538;29;20584;-61
2022/12/14 14:10:44;;;;;;;16.95;10.98;;;0.80;99.90;;;;;;4935398;28;20208;-61
2022/12/14 14:13:28;;;;;;;25.40;14.00;;;0.80;99.90;;;;;;4956287;29;20651;-62
2022/12/14 14:16:04;;;;;;;31.10;13.88;;;0.70;99.90;;;;;;4956336;29;20934;-61
2022/12/14 14:18:33;;;;;;;23.77;13.52;;;0.70;99.90;;;;;;4956168;29;20176;-61
2022/12/14 14:21:11;;;;;;;20.65;12.43;;;0.60;99.90;;;;;;4956749;29;20188;-60
2022/12/14 14:23:54;;;;;;;19.02;11.98;;;0.60;99.90;;;;;;4955908;28;20180;-61
2022/12/14 14:26:21;;;;;;;24.08;13.60;;;0.60;99.90;;;;;;4955973;29;20250;-62
2022/12/14 14:28:59;;;;;;;20.13;12.85;;;0.50;99.90;;;;;;4955984;29;20183;-62
2022/12/14 14:31:46;;;;;;;19.27;13.73;;;0.60;99.90;;;;;;4956218;29;20184;-61
2022/12/14 14:34:20;;;;;;;23.13;14.38;;;0.50;99.90;;;;;;4955610;28;20199;-60
2022/12/14 14:36:46;;;;;;;19.67;12.73;;;0.50;99.90;;;;;;4956158;29;20183;-60
2022/12/14 14:39:35;;;;;;;21.10;13.83;;;0.40;99.90;;;;;;4955944;29;20184;-60
2022/12/14 14:42:05;;;;;;;20.65;12.30;;;0.40;99.90;;;;;;4956109;29;20452;-60
2022/12/14 14:44:41;;;;;;;20.38;12.23;;;0.40;99.90;;;;;;4955366;28;20256;-61
2022/12/14 14:47:38;;;;;;;19.83;12.00;;;0.40;99.90;;;;;;4955906;29;20247;-62
2022/12/14 14:50:14;;;;;;;19.42;11.73;;;0.40;99.90;;;;;;4936800;29;20546;-62
2022/12/14 14:52:43;;;;;;;20.38;10.48;;;0.30;99.90;;;;;;4955532;29;20169;-60
2022/12/14 14:55:27;;;;;;;20.15;13.68;;;0.30;99.90;;;;;;4955403;28;20207;-61
2022/12/14 14:57:59;;;;;;;20.90;12.57;;;0.30;99.90;;;;;;4955657;29;20267;-61
2022/12/14 15:00:27;;;;;;;25.20;14.38;;;0.30;99.90;;;;;;4955599;29;20181;-61
2022/12/14 15:02:54;;;;;;;20.77;12.18;;;0.30;99.90;;;;;;4954986;28;20187;-61
2022/12/14 15:05:26;;;;;;;33.90;14.07;;;0.30;99.90;;;;;;4955569;28;20227;-61
2022/12/14 15:07:55;;;;;;;19.80;14.18;;;0.30;99.90;;;;;;4955492;29;20220;-62
2022/12/14 15:10:34;;;;;;;21.17;13.75;;;0.30;99.90;;;;;;4955493;29;20182;-61
2022/12/14 15:13:04;;;;;;;22.20;12.85;;;0.30;99.90;;;;;;4955594;29;20638;-62
2022/12/14 15:15:50;;;;;;;18.95;12.70;;;0.30;99.90;;;;;;4955447;28;20207;-62
2022/12/14 15:18:22;;;;;;;21.17;11.73;;;0.20;99.90;;;;;;4955301;29;20183;-61
2022/12/14 15:20:53;;;;;;;19.50;12.40;;;0.20;99.90;;;;;;4955515;29;20235;-62
2022/12/14 15:23:20;;;;;;;22.02;13.30;;;0.20;99.90;;;;;;4955257;28;20177;-61
2022/12/14 15:25:58;;;;;;;21.25;12.32;;;0.20;99.90;;;;;;4955349;29;20197;-61
2022/12/14 15:28:25;;;;;;;20.80;12.50;;;0.20;99.90;;;;;;4955310;29;20173;-61
2022/12/14 15:30:53;;;;;;;20.35;13.82;;;0.20;99.90;;;;;;4955252;29;20195;-62
2022/12/14 15:33:49;;;;;;;23.20;12.27;;;0.10;99.90;;;;;;4954938;28;20186;-61
2022/12/14 15:36:16;;;;;;;20.88;12.60;;;0.10;99.90;;;;;;4935095;29;20243;-62
2022/12/14 15:38:53;;;;;;;16.33;10.43;;;0.10;99.90;;;;;;4955127;29;20180;-62
2022/12/14 15:41:21;;;;;;;15.30;10.23;;;0.10;99.90;;;;;;4955244;29;20199;-62
2022/12/14 15:43:48;;;;;;;19.20;13.48;;;0.10;99.90;;;;;;4954860;28;20620;-61
2022/12/14 15:46:17;;;;;;;20.95;10.88;;;0.10;99.90;;;;;;4955007;29;20599;-60
2022/12/14 15:48:43;;;;;;;17.83;11.25;;;0.10;99.90;;;;;;4955155;29;20201;-62
2022/12/14 15:51:17;;;;;;;22.90;12.83;;;0.10;99.90;;;;;;4955104;29;20199;-60
2022/12/14 15:53:49;;;;;;;30.65;15.20;;;0.10;99.90;;;;;;4954554;28;20246;-60
2022/12/14 15:56:30;;;;;;;19.52;14.55;;;0.10;99.90;;;;;;4955211;29;20187;-61
2022/12/14 15:58:59;;;;;;;15.85;9.82;;;0.10;99.90;;;;;;4954967;29;20173;-61
2022/12/14 16:01:39;;;;;;;27.60;14.52;;;0.10;99.90;;;;;;4954932;29;20176;-61
2022/12/14 16:04:11;;;;;;;23.17;12.15;;;0.10;99.90;;;;;;4954633;28;20248;-61
2022/12/14 16:06:41;;;;;;;21.17;13.00;;;0.10;99.90;;;;;;4954753;29;20210;-61
2022/12/14 16:09:45;;;;;;;19.10;12.13;;;0.10;99.90;;;;;;4955554;29;20183;-61
2022/12/14 16:12:24;;;;;;;24.23;12.63;;;0.00;99.90;;;;;;4902027;29;20185;-62
2022/12/14 16:14:55;;;;;;;15.98;10.23;;;0.00;99.90;;;;;;4956177;28;20197;-62
2022/12/14 16:17:29;;;;;;;20.13;10.38;;;-0.10;99.90;;;;;;4958728;29;20224;-62
2022/12/14 16:19:59;;;;;;;19.88;12.25;;;-0.10;99.90;;;;;;4958653;29;20183;-61
2022/12/14 16:22:27;;;;;;;23.15;13.13;;;0.00;99.90;;;;;;4941295;29;20275;-62
2022/12/14 16:25:15;;;;;;;19.58;12.60;;;0.00;99.90;;;;;;4957841;28;20695;-61
2022/12/14 16:27:51;;;;;;;19.73;11.65;;;-0.10;99.90;;;;;;4958150;29;20671;-62
2022/12/14 16:30:31;;;;;;;19.23;13.52;;;-0.10;99.90;;;;;;4958101;29;20633;-62
2022/12/14 16:33:16;;;;;;;17.02;11.65;;;-0.10;99.90;;;;;;4958032;29;20173;-62
2022/12/14 16:35:44;;;;;;;12.40;10.68;;;-0.10;99.90;;;;;;4958255;28;20287;-62
2022/12/14 16:38:15;;;;;;;17.02;9.95;;;-0.10;99.90;;;;;;4958238;29;20259;-62
2022/12/14 16:40:52;;;;;;;21.38;14.00;;;-0.10;99.90;;;;;;4958273;29;20183;-62
2022/12/14 16:43:30;;;;;;;20.52;13.23;;;-0.10;99.90;;;;;;4958031;29;20177;-61
2022/12/14 16:46:08;;;;;;;20.83;13.07;;;-0.10;99.90;;;;;;4957989;29;20204;-61
2022/12/14 16:48:44;;;;;;;14.25;10.52;;;-0.10;99.90;;;;;;4957944;29;20175;-62
2022/12/14 16:51:18;;;;;;;16.83;11.23;;;-0.10;99.90;;;;;;4957935;29;20244;-62
2022/12/14 16:54:04;;;;;;;23.92;12.23;;;-0.10;99.90;;;;;;4957470;28;20190;-60
2022/12/14 16:56:41;;;;;;;21.25;11.25;;;-0.10;99.90;;;;;;4958134;29;20232;-61
2022/12/14 16:59:21;;;;;;;23.63;10.90;;;-0.10;99.90;;;;;;4957851;29;20183;-61
2022/12/14 17:01:48;;;;;;;22.85;12.60;;;-0.10;99.90;;;;;;4957686;29;20582;-62
2022/12/14 17:04:16;;;;;;;23.98;13.25;;;-0.10;99.90;;;;;;4957073;28;20693;-61
2022/12/14 17:06:51;;;;;;;13.15;10.50;;;-0.10;99.90;;;;;;4957182;29;20212;-62
2022/12/14 17:09:26;;;;;;;19.05;10.85;;;-0.10;99.90;;;;;;4957310;29;20660;-61
2022/12/14 17:11:54;;;;;;;15.23;9.73;;;0.00;99.90;;;;;;4957886;29;20206;-63
2022/12/14 17:14:20;;;;;;;19.13;12.10;;;0.00;99.90;;;;;;4957142;28;20667;-62
2022/12/14 17:16:48;;;;;;;22.90;13.07;;;0.10;99.90;;;;;;4957372;29;20187;-61
2022/12/14 17:19:25;;;;;;;24.13;12.75;;;0.10;99.90;;;;;;4957423;29;20420;-62
2022/12/14 17:21:51;;;;;;;21.58;12.68;;;0.20;99.90;;;;;;4957230;29;20180;-61
2022/12/14 17:24:20;;;;;;;22.80;13.13;;;0.10;99.90;;;;;;4956944;28;20212;-61
2022/12/14 17:26:47;;;;;;;18.52;12.48;;;0.10;99.90;;;;;;4956847;28;20207;-60
2022/12/14 17:29:17;;;;;;;17.80;12.55;;;0.10;99.90;;;;;;4957361;29;20223;-62
2022/12/14 17:31:43;;;;;;;19.00;13.00;;;0.10;99.90;;;;;;4957171;29;20185;-61
2022/12/14 17:34:09;;;;;;;22.10;13.57;;;0.10;99.90;;;;;;4956600;28;20189;-62
2022/12/14 17:36:34;;;;;;;15.33;10.70;;;0.10;99.90;;;;;;4956958;29;20183;-62
2022/12/14 17:39:00;;;;;;;16.00;11.10;;;0.10;99.90;;;;;;4956770;29;20177;-61
2022/12/14 17:41:26;;;;;;;18.80;12.57;;;0.10;99.90;;;;;;4956818;29;20168;-62
2022/12/14 17:43:56;;;;;;;18.10;14.43;;;0.20;99.90;;;;;;4956482;28;20207;-62
2022/12/14 17:46:22;;;;;;;27.77;13.25;;;0.20;99.90;;;;;;4956844;29;20500;-63
2022/12/14 17:48:48;;;;;;;17.40;11.63;;;0.10;99.90;;;;;;4956766;29;20194;-61
2022/12/14 17:51:21;;;;;;;15.45;10.63;;;0.10;99.90;;;;;;4956786;29;20180;-61
2022/12/14 17:53:47;;;;;;;19.67;12.65;;;0.10;99.90;;;;;;4956281;28;20254;-60
2022/12/14 17:56:13;;;;;;;20.02;11.73;;;0.10;99.90;;;;;;4956788;29;20657;-61
2022/12/14 17:58:38;;;;;;;17.93;11.60;;;0.10;99.90;;;;;;4956413;28;20184;-61
2022/12/14 18:01:06;;;;;;;18.80;13.30;;;0.10;99.90;;;;;;4956378;29;20177;-61
2022/12/14 18:03:35;;;;;;;18.60;12.65;;;0.00;99.90;;;;;;4956181;28;20775;-61
2022/12/14 18:06:02;;;;;;;21.23;11.95;;;0.00;99.90;;;;;;4956219;29;20216;-61
2022/12/14 18:08:27;;;;;;;20.17;13.07;;;0.00;99.90;;;;;;4956451;29;20550;-62
2022/12/14 18:10:56;;;;;;;18.73;11.40;;;0.00;99.90;;;;;;4956488;29;20173;-61